sensor_id;sensor_type;location;lat;lon;timestamp;P1;durP1;ratioP1;P2;durP2;ratioP2
30533;SDS011;17318;52.390;9.754;2023-02-01T00:01:59;38.53;;;3.40;;
30533;SDS011;17318;52.390;9.754;2023-02-01T00:04:25;25.80;;;4.00;;
30533;SDS011;17318;52.390;9.754;2023-02-01T00:06:51;32.10;;;5.38;;
30533;SDS011;17318;52.390;9.754;2023-02-01T00:09:17;18.55;;;2.80;;
30533;SDS011;17318;52.390;9.754;2023-02-01T00:11:43;28.08;;;3.75;;
30533;SDS011;17318;52.390;9.754;2023-02-01T00:14:09;20.27;;;3.33;;
30533;SDS011;17318;52.390;9.754;2023-02-01T00:16:35;23.90;;;3.83;;
30533;SDS011;17318;52.390;9.754;2023-02-01T00:19:02;26.23;;;3.25;;
30533;SDS011;17318;52.390;9.754;2023-02-01T00:21:38;33.55;;;4.00;;
30533;SDS011;17318;52.390;9.754;2023-02-01T00:24:04;23.77;;;3.22;;
30533;SDS011;17318;52.390;9.754;2023-02-01T00:26:34;29.27;;;4.05;;
30533;SDS011;17318;52.390;9.754;2023-02-01T00:29:01;28.42;;;3.47;;
30533;SDS011;17318;52.390;9.754;2023-02-01T00:31:28;25.83;;;3.30;;
30533;SDS011;17318;52.390;9.754;2023-02-01T00:33:53;21.67;;;2.90;;
30533;SDS011;17318;52.390;9.754;2023-02-01T00:36:19;28.92;;;3.22;;
30533;SDS011;17318;52.390;9.754;2023-02-01T00:38:45;31.92;;;3.00;;
30533;SDS011;17318;52.390;9.754;2023-02-01T00:41:12;30.17;;;3.53;;
30533;SDS011;17318;52.390;9.754;2023-02-01T00:43:39;22.83;;;3.60;;
30533;SDS011;17318;52.390;9.754;2023-02-01T00:46:05;27.98;;;4.28;;
30533;SDS011;17318;52.390;9.754;2023-02-01T00:48:31;22.30;;;2.67;;
30533;SDS011;17318;52.390;9.754;2023-02-01T00:51:01;27.33;;;3.67;;
30533;SDS011;17318;52.390;9.754;2023-02-01T00:53:28;24.85;;;3.72;;
30533;SDS011;17318;52.390;9.754;2023-02-01T00:55:54;27.50;;;3.80;;
30533;SDS011;17318;52.390;9.754;2023-02-01T00:58:19;19.08;;;3.35;;
30533;SDS011;17318;52.390;9.754;2023-02-01T01:00:45;47.95;;;6.20;;
30533;SDS011;17318;52.390;9.754;2023-02-01T01:03:11;21.98;;;3.08;;
30533;SDS011;17318;52.390;9.754;2023-02-01T01:05:44;20.90;;;3.40;;
30533;SDS011;17318;52.390;9.754;2023-02-01T01:08:10;13.57;;;3.58;;
30533;SDS011;17318;52.390;9.754;2023-02-01T01:10:36;30.88;;;4.15;;
30533;SDS011;17318;52.390;9.754;2023-02-01T01:13:02;23.65;;;3.33;;
30533;SDS011;17318;52.390;9.754;2023-02-01T01:15:28;33.67;;;3.65;;
30533;SDS011;17318;52.390;9.754;2023-02-01T01:17:53;37.33;;;3.72;;
30533;SDS011;17318;52.390;9.754;2023-02-01T01:20:19;20.10;;;3.00;;
30533;SDS011;17318;52.390;9.754;2023-02-01T01:22:46;27.67;;;3.53;;
30533;SDS011;17318;52.390;9.754;2023-02-01T01:25:12;20.77;;;3.03;;
30533;SDS011;17318;52.390;9.754;2023-02-01T01:27:38;26.95;;;3.03;;
30533;SDS011;17318;52.390;9.754;2023-02-01T01:30:04;22.15;;;3.88;;
30533;SDS011;17318;52.390;9.754;2023-02-01T01:32:31;19.35;;;3.05;;
30533;SDS011;17318;52.390;9.754;2023-02-01T01:34:56;26.58;;;3.80;;
30533;SDS011;17318;52.390;9.754;2023-02-01T01:37:22;20.90;;;3.45;;
30533;SDS011;17318;52.390;9.754;2023-02-01T01:39:48;29.00;;;3.72;;
30533;SDS011;17318;52.390;9.754;2023-02-01T01:42:13;20.70;;;3.63;;
30533;SDS011;17318;52.390;9.754;2023-02-01T01:47:20;21.70;;;3.63;;
30533;SDS011;17318;52.390;9.754;2023-02-01T01:49:45;21.27;;;2.95;;
30533;SDS011;17318;52.390;9.754;2023-02-01T01:52:11;29.83;;;4.82;;
30533;SDS011;17318;52.390;9.754;2023-02-01T01:54:39;29.67;;;3.58;;
30533;SDS011;17318;52.390;9.754;2023-02-01T01:57:12;20.38;;;2.95;;
30533;SDS011;17318;52.390;9.754;2023-02-01T01:59:42;30.92;;;4.63;;
30533;SDS011;17318;52.390;9.754;2023-02-01T02:02:12;31.08;;;3.75;;
30533;SDS011;17318;52.390;9.754;2023-02-01T02:04:38;28.30;;;3.63;;
30533;SDS011;17318;52.390;9.754;2023-02-01T02:07:05;21.65;;;3.90;;
30533;SDS011;17318;52.390;9.754;2023-02-01T02:09:36;22.95;;;3.00;;
30533;SDS011;17318;52.390;9.754;2023-02-01T02:12:02;29.30;;;3.13;;
30533;SDS011;17318;52.390;9.754;2023-02-01T02:14:28;25.65;;;3.20;;
30533;SDS011;17318;52.390;9.754;2023-02-01T02:25:29;21.15;;;2.92;;
30533;SDS011;17318;52.390;9.754;2023-02-01T02:28:24;17.53;;;2.83;;
30533;SDS011;17318;52.390;9.754;2023-02-01T02:31:33;24.70;;;2.58;;
30533;SDS011;17318;52.390;9.754;2023-02-01T02:34:40;19.05;;;2.78;;
30533;SDS011;17318;52.390;9.754;2023-02-01T02:42:42;23.75;;;3.38;;
30533;SDS011;17318;52.390;9.754;2023-02-01T02:45:43;21.92;;;3.63;;
30533;SDS011;17318;52.390;9.754;2023-02-01T02:48:37;27.85;;;3.72;;
30533;SDS011;17318;52.390;9.754;2023-02-01T02:51:21;24.77;;;3.83;;
30533;SDS011;17318;52.390;9.754;2023-02-01T02:54:45;24.42;;;3.40;;
30533;SDS011;17318;52.390;9.754;2023-02-01T02:57:17;34.15;;;4.43;;
30533;SDS011;17318;52.390;9.754;2023-02-01T03:00:17;14.73;;;2.70;;
30533;SDS011;17318;52.390;9.754;2023-02-01T03:03:03;25.42;;;3.67;;
30533;SDS011;17318;52.390;9.754;2023-02-01T03:05:49;22.38;;;3.65;;
30533;SDS011;17318;52.390;9.754;2023-02-01T03:08:25;22.80;;;3.23;;
30533;SDS011;17318;52.390;9.754;2023-02-01T03:13:46;20.33;;;3.22;;
30533;SDS011;17318;52.390;9.754;2023-02-01T03:18:54;24.73;;;3.80;;
30533;SDS011;17318;52.390;9.754;2023-02-01T03:21:26;35.97;;;3.63;;
30533;SDS011;17318;52.390;9.754;2023-02-01T03:23:53;25.20;;;3.95;;
30533;SDS011;17318;52.390;9.754;2023-02-01T03:26:24;26.55;;;3.33;;
30533;SDS011;17318;52.390;9.754;2023-02-01T03:28:57;20.00;;;3.38;;
30533;SDS011;17318;52.390;9.754;2023-02-01T03:31:30;25.65;;;3.13;;
30533;SDS011;17318;52.390;9.754;2023-02-01T03:33:56;24.35;;;3.45;;
30533;SDS011;17318;52.390;9.754;2023-02-01T03:39:21;24.77;;;3.83;;
30533;SDS011;17318;52.390;9.754;2023-02-01T03:41:51;25.10;;;3.47;;
30533;SDS011;17318;52.390;9.754;2023-02-01T03:47:13;25.73;;;3.50;;
30533;SDS011;17318;52.390;9.754;2023-02-01T03:49:47;30.48;;;4.07;;
30533;SDS011;17318;52.390;9.754;2023-02-01T03:52:22;18.40;;;3.13;;
30533;SDS011;17318;52.390;9.754;2023-02-01T03:55:07;25.13;;;3.97;;
30533;SDS011;17318;52.390;9.754;2023-02-01T03:57:35;18.02;;;2.67;;
30533;SDS011;17318;52.390;9.754;2023-02-01T04:00:25;21.20;;;3.03;;
30533;SDS011;17318;52.390;9.754;2023-02-01T04:02:50;20.70;;;3.55;;
30533;SDS011;17318;52.390;9.754;2023-02-01T04:05:17;20.83;;;4.65;;
30533;SDS011;17318;52.390;9.754;2023-02-01T04:07:43;23.13;;;3.55;;
30533;SDS011;17318;52.390;9.754;2023-02-01T04:10:09;24.48;;;3.85;;
30533;SDS011;17318;52.390;9.754;2023-02-01T04:12:35;30.48;;;3.47;;
30533;SDS011;17318;52.390;9.754;2023-02-01T04:15:01;25.80;;;3.67;;
30533;SDS011;17318;52.390;9.754;2023-02-01T04:17:28;17.30;;;3.10;;
30533;SDS011;17318;52.390;9.754;2023-02-01T04:19:54;18.33;;;3.03;;
30533;SDS011;17318;52.390;9.754;2023-02-01T04:22:20;27.35;;;3.70;;
30533;SDS011;17318;52.390;9.754;2023-02-01T04:24:45;21.27;;;2.90;;
30533;SDS011;17318;52.390;9.754;2023-02-01T04:27:11;23.83;;;3.05;;
30533;SDS011;17318;52.390;9.754;2023-02-01T04:29:37;20.98;;;2.88;;
30533;SDS011;17318;52.390;9.754;2023-02-01T04:32:03;28.35;;;3.65;;
30533;SDS011;17318;52.390;9.754;2023-02-01T04:34:29;23.23;;;3.30;;
30533;SDS011;17318;52.390;9.754;2023-02-01T04:36:55;23.75;;;3.75;;
30533;SDS011;17318;52.390;9.754;2023-02-01T04:39:20;18.17;;;3.13;;
30533;SDS011;17318;52.390;9.754;2023-02-01T04:41:46;16.77;;;2.95;;
30533;SDS011;17318;52.390;9.754;2023-02-01T04:44:15;29.15;;;3.35;;
30533;SDS011;17318;52.390;9.754;2023-02-01T04:46:42;23.42;;;3.25;;
30533;SDS011;17318;52.390;9.754;2023-02-01T04:49:08;24.25;;;3.42;;
30533;SDS011;17318;52.390;9.754;2023-02-01T04:51:35;27.25;;;3.88;;
30533;SDS011;17318;52.390;9.754;2023-02-01T04:54:01;22.52;;;3.42;;
30533;SDS011;17318;52.390;9.754;2023-02-01T04:56:27;20.95;;;3.47;;
30533;SDS011;17318;52.390;9.754;2023-02-01T04:58:52;29.30;;;3.65;;
30533;SDS011;17318;52.390;9.754;2023-02-01T05:01:18;29.83;;;4.03;;
30533;SDS011;17318;52.390;9.754;2023-02-01T05:03:44;22.48;;;3.10;;
30533;SDS011;17318;52.390;9.754;2023-02-01T05:06:10;14.57;;;3.03;;
30533;SDS011;17318;52.390;9.754;2023-02-01T05:08:35;27.38;;;3.47;;
30533;SDS011;17318;52.390;9.754;2023-02-01T05:11:01;31.10;;;3.70;;
30533;SDS011;17318;52.390;9.754;2023-02-01T05:13:28;19.13;;;3.47;;
30533;SDS011;17318;52.390;9.754;2023-02-01T05:16:13;20.92;;;4.00;;
30533;SDS011;17318;52.390;9.754;2023-02-01T05:18:39;16.42;;;3.03;;
30533;SDS011;17318;52.390;9.754;2023-02-01T05:21:05;25.98;;;3.53;;
30533;SDS011;17318;52.390;9.754;2023-02-01T05:23:30;24.38;;;3.72;;
30533;SDS011;17318;52.390;9.754;2023-02-01T05:26:00;15.82;;;3.42;;
30533;SDS011;17318;52.390;9.754;2023-02-01T05:28:26;20.75;;;3.47;;
30533;SDS011;17318;52.390;9.754;2023-02-01T05:30:53;18.52;;;3.17;;
30533;SDS011;17318;52.390;9.754;2023-02-01T05:33:18;25.20;;;3.85;;
30533;SDS011;17318;52.390;9.754;2023-02-01T05:35:44;15.45;;;3.53;;
30533;SDS011;17318;52.390;9.754;2023-02-01T05:38:10;19.63;;;3.25;;
30533;SDS011;17318;52.390;9.754;2023-02-01T05:40:35;18.98;;;3.13;;
30533;SDS011;17318;52.390;9.754;2023-02-01T05:43:01;18.65;;;3.58;;
30533;SDS011;17318;52.390;9.754;2023-02-01T05:45:26;25.58;;;3.40;;
30533;SDS011;17318;52.390;9.754;2023-02-01T05:47:52;20.20;;;3.60;;
30533;SDS011;17318;52.390;9.754;2023-02-01T05:50:18;23.63;;;3.85;;
30533;SDS011;17318;52.390;9.754;2023-02-01T05:52:43;18.58;;;3.30;;
30533;SDS011;17318;52.390;9.754;2023-02-01T05:55:09;21.08;;;3.33;;
30533;SDS011;17318;52.390;9.754;2023-02-01T05:57:35;20.33;;;3.55;;
30533;SDS011;17318;52.390;9.754;2023-02-01T06:00:00;24.65;;;3.25;;
30533;SDS011;17318;52.390;9.754;2023-02-01T06:02:26;18.48;;;3.47;;
30533;SDS011;17318;52.390;9.754;2023-02-01T06:04:52;16.02;;;3.35;;
30533;SDS011;17318;52.390;9.754;2023-02-01T06:07:17;22.63;;;3.40;;
30533;SDS011;17318;52.390;9.754;2023-02-01T06:09:43;17.15;;;2.72;;
30533;SDS011;17318;52.390;9.754;2023-02-01T06:12:09;16.75;;;2.85;;
30533;SDS011;17318;52.390;9.754;2023-02-01T06:14:34;20.83;;;2.80;;
30533;SDS011;17318;52.390;9.754;2023-02-01T06:17:02;16.60;;;3.93;;
30533;SDS011;17318;52.390;9.754;2023-02-01T06:19:27;24.05;;;3.42;;
30533;SDS011;17318;52.390;9.754;2023-02-01T06:21:53;22.52;;;5.38;;
30533;SDS011;17318;52.390;9.754;2023-02-01T06:24:19;20.42;;;3.70;;
30533;SDS011;17318;52.390;9.754;2023-02-01T06:26:45;18.67;;;2.92;;
30533;SDS011;17318;52.390;9.754;2023-02-01T06:29:10;14.68;;;2.80;;
30533;SDS011;17318;52.390;9.754;2023-02-01T06:31:36;12.90;;;3.03;;
30533;SDS011;17318;52.390;9.754;2023-02-01T06:34:02;13.23;;;3.22;;
30533;SDS011;17318;52.390;9.754;2023-02-01T06:36:28;15.63;;;2.97;;
30533;SDS011;17318;52.390;9.754;2023-02-01T06:38:54;11.48;;;2.70;;
30533;SDS011;17318;52.390;9.754;2023-02-01T06:41:22;14.93;;;2.90;;
30533;SDS011;17318;52.390;9.754;2023-02-01T06:43:48;18.80;;;2.65;;
30533;SDS011;17318;52.390;9.754;2023-02-01T06:46:14;12.68;;;2.42;;
30533;SDS011;17318;52.390;9.754;2023-02-01T06:48:40;20.77;;;3.10;;
30533;SDS011;17318;52.390;9.754;2023-02-01T06:51:05;11.35;;;2.70;;
30533;SDS011;17318;52.390;9.754;2023-02-01T06:53:41;14.48;;;2.28;;
30533;SDS011;17318;52.390;9.754;2023-02-01T06:56:08;9.52;;;2.60;;
30533;SDS011;17318;52.390;9.754;2023-02-01T06:58:34;17.35;;;3.13;;
30533;SDS011;17318;52.390;9.754;2023-02-01T07:01:06;12.23;;;2.75;;
30533;SDS011;17318;52.390;9.754;2023-02-01T07:03:32;10.25;;;2.40;;
30533;SDS011;17318;52.390;9.754;2023-02-01T07:05:58;17.75;;;3.90;;
30533;SDS011;17318;52.390;9.754;2023-02-01T07:08:24;12.45;;;2.58;;
30533;SDS011;17318;52.390;9.754;2023-02-01T07:10:51;13.50;;;2.80;;
30533;SDS011;17318;52.390;9.754;2023-02-01T07:13:17;12.32;;;2.22;;
30533;SDS011;17318;52.390;9.754;2023-02-01T07:15:43;17.27;;;3.13;;
30533;SDS011;17318;52.390;9.754;2023-02-01T07:18:08;19.70;;;2.80;;
30533;SDS011;17318;52.390;9.754;2023-02-01T07:20:34;19.48;;;3.65;;
30533;SDS011;17318;52.390;9.754;2023-02-01T07:22:59;23.70;;;3.53;;
30533;SDS011;17318;52.390;9.754;2023-02-01T07:25:25;22.30;;;3.85;;
30533;SDS011;17318;52.390;9.754;2023-02-01T07:27:51;18.33;;;2.95;;
30533;SDS011;17318;52.390;9.754;2023-02-01T07:30:16;24.88;;;4.03;;
30533;SDS011;17318;52.390;9.754;2023-02-01T07:32:42;22.38;;;3.17;;
30533;SDS011;17318;52.390;9.754;2023-02-01T07:35:08;15.32;;;3.17;;
30533;SDS011;17318;52.390;9.754;2023-02-01T07:37:34;21.38;;;3.33;;
30533;SDS011;17318;52.390;9.754;2023-02-01T07:39:59;22.48;;;3.65;;
30533;SDS011;17318;52.390;9.754;2023-02-01T07:42:25;20.52;;;3.70;;
30533;SDS011;17318;52.390;9.754;2023-02-01T07:44:51;19.75;;;3.85;;
30533;SDS011;17318;52.390;9.754;2023-02-01T07:47:16;33.42;;;4.22;;
30533;SDS011;17318;52.390;9.754;2023-02-01T07:49:42;24.88;;;3.25;;
30533;SDS011;17318;52.390;9.754;2023-02-01T07:52:07;29.45;;;4.20;;
30533;SDS011;17318;52.390;9.754;2023-02-01T07:54:33;18.67;;;3.47;;
30533;SDS011;17318;52.390;9.754;2023-02-01T07:56:59;15.73;;;3.47;;
30533;SDS011;17318;52.390;9.754;2023-02-01T07:59:24;33.03;;;3.17;;
30533;SDS011;17318;52.390;9.754;2023-02-01T08:01:50;24.75;;;3.30;;
30533;SDS011;17318;52.390;9.754;2023-02-01T08:04:15;23.02;;;3.33;;
30533;SDS011;17318;52.390;9.754;2023-02-01T08:06:41;20.52;;;3.33;;
30533;SDS011;17318;52.390;9.754;2023-02-01T08:09:07;26.15;;;3.35;;
30533;SDS011;17318;52.390;9.754;2023-02-01T08:11:35;23.05;;;3.15;;
30533;SDS011;17318;52.390;9.754;2023-02-01T08:14:03;15.23;;;3.22;;
30533;SDS011;17318;52.390;9.754;2023-02-01T08:16:29;19.60;;;2.83;;
30533;SDS011;17318;52.390;9.754;2023-02-01T08:18:55;18.92;;;3.08;;
30533;SDS011;17318;52.390;9.754;2023-02-01T08:21:22;20.60;;;3.45;;
30533;SDS011;17318;52.390;9.754;2023-02-01T08:23:50;20.73;;;3.80;;
30533;SDS011;17318;52.390;9.754;2023-02-01T08:26:17;25.52;;;4.60;;
30533;SDS011;17318;52.390;9.754;2023-02-01T08:28:52;24.83;;;3.47;;
30533;SDS011;17318;52.390;9.754;2023-02-01T08:31:20;13.88;;;2.88;;
30533;SDS011;17318;52.390;9.754;2023-02-01T08:33:48;19.38;;;3.40;;
30533;SDS011;17318;52.390;9.754;2023-02-01T08:36:18;20.30;;;3.28;;
30533;SDS011;17318;52.390;9.754;2023-02-01T08:38:45;23.98;;;3.63;;
30533;SDS011;17318;52.390;9.754;2023-02-01T08:41:12;16.27;;;3.30;;
30533;SDS011;17318;52.390;9.754;2023-02-01T08:43:39;21.17;;;3.80;;
30533;SDS011;17318;52.390;9.754;2023-02-01T08:46:06;16.67;;;2.92;;
30533;SDS011;17318;52.390;9.754;2023-02-01T08:48:33;19.00;;;3.83;;
30533;SDS011;17318;52.390;9.754;2023-02-01T08:51:02;18.98;;;2.83;;
30533;SDS011;17318;52.390;9.754;2023-02-01T08:53:29;21.08;;;2.78;;
30533;SDS011;17318;52.390;9.754;2023-02-01T08:55:55;27.40;;;3.92;;
30533;SDS011;17318;52.390;9.754;2023-02-01T08:58:21;16.10;;;3.42;;
30533;SDS011;17318;52.390;9.754;2023-02-01T09:00:47;29.67;;;3.53;;
30533;SDS011;17318;52.390;9.754;2023-02-01T09:03:13;20.92;;;2.97;;
30533;SDS011;17318;52.390;9.754;2023-02-01T09:05:39;14.93;;;2.95;;
30533;SDS011;17318;52.390;9.754;2023-02-01T09:08:05;14.18;;;2.70;;
30533;SDS011;17318;52.390;9.754;2023-02-01T09:10:31;14.25;;;2.38;;
30533;SDS011;17318;52.390;9.754;2023-02-01T09:12:57;17.00;;;2.60;;
30533;SDS011;17318;52.390;9.754;2023-02-01T09:15:23;20.45;;;3.22;;
30533;SDS011;17318;52.390;9.754;2023-02-01T09:17:49;15.05;;;2.58;;
30533;SDS011;17318;52.390;9.754;2023-02-01T09:20:14;18.15;;;3.35;;
30533;SDS011;17318;52.390;9.754;2023-02-01T09:22:40;21.35;;;3.05;;
30533;SDS011;17318;52.390;9.754;2023-02-01T09:25:06;14.90;;;2.65;;
30533;SDS011;17318;52.390;9.754;2023-02-01T09:27:33;24.35;;;4.25;;
30533;SDS011;17318;52.390;9.754;2023-02-01T09:30:00;21.73;;;4.43;;
30533;SDS011;17318;52.390;9.754;2023-02-01T09:32:27;13.63;;;2.22;;
30533;SDS011;17318;52.390;9.754;2023-02-01T09:34:53;13.02;;;2.67;;
30533;SDS011;17318;52.390;9.754;2023-02-01T09:37:19;18.27;;;2.65;;
30533;SDS011;17318;52.390;9.754;2023-02-01T09:39:45;21.50;;;3.00;;
30533;SDS011;17318;52.390;9.754;2023-02-01T09:45:15;17.88;;;2.17;;
30533;SDS011;17318;52.390;9.754;2023-02-01T09:47:59;13.18;;;2.15;;
30533;SDS011;17318;52.390;9.754;2023-02-01T09:55:48;22.83;;;3.35;;
30533;SDS011;17318;52.390;9.754;2023-02-01T09:58:27;14.38;;;2.42;;
30533;SDS011;17318;52.390;9.754;2023-02-01T10:01:10;15.25;;;2.65;;
30533;SDS011;17318;52.390;9.754;2023-02-01T10:03:50;19.70;;;3.20;;
30533;SDS011;17318;52.390;9.754;2023-02-01T10:06:28;13.88;;;2.20;;
30533;SDS011;17318;52.390;9.754;2023-02-01T10:11:36;18.45;;;2.67;;
30533;SDS011;17318;52.390;9.754;2023-02-01T10:16:50;16.58;;;2.42;;
30533;SDS011;17318;52.390;9.754;2023-02-01T10:22:31;13.15;;;2.40;;
30533;SDS011;17318;52.390;9.754;2023-02-01T10:25:07;20.02;;;3.47;;
30533;SDS011;17318;52.390;9.754;2023-02-01T10:27:47;15.98;;;3.55;;
30533;SDS011;17318;52.390;9.754;2023-02-01T10:32:52;23.98;;;3.20;;
30533;SDS011;17318;52.390;9.754;2023-02-01T10:35:22;17.85;;;3.10;;
30533;SDS011;17318;52.390;9.754;2023-02-01T10:37:52;26.00;;;3.88;;
30533;SDS011;17318;52.390;9.754;2023-02-01T10:40:24;18.15;;;3.20;;
30533;SDS011;17318;52.390;9.754;2023-02-01T10:42:54;21.80;;;3.53;;
30533;SDS011;17318;52.390;9.754;2023-02-01T10:45:24;22.73;;;2.70;;
30533;SDS011;17318;52.390;9.754;2023-02-01T10:47:52;15.13;;;2.50;;
30533;SDS011;17318;52.390;9.754;2023-02-01T10:53:03;29.40;;;7.15;;
30533;SDS011;17318;52.390;9.754;2023-02-01T10:55:49;21.97;;;5.43;;
30533;SDS011;17318;52.390;9.754;2023-02-01T10:58:16;21.63;;;4.43;;
30533;SDS011;17318;52.390;9.754;2023-02-01T11:00:54;17.90;;;3.15;;
30533;SDS011;17318;52.390;9.754;2023-02-01T11:05:59;22.58;;;4.53;;
30533;SDS011;17318;52.390;9.754;2023-02-01T11:08:27;17.08;;;2.47;;
30533;SDS011;17318;52.390;9.754;2023-02-01T11:10:57;19.83;;;3.03;;
30533;SDS011;17318;52.390;9.754;2023-02-01T11:13:27;16.23;;;2.30;;
30533;SDS011;17318;52.390;9.754;2023-02-01T11:15:55;15.60;;;2.47;;
30533;SDS011;17318;52.390;9.754;2023-02-01T11:18:26;18.67;;;2.70;;
30533;SDS011;17318;52.390;9.754;2023-02-01T11:20:53;19.70;;;2.55;;
30533;SDS011;17318;52.390;9.754;2023-02-01T11:23:27;18.73;;;3.33;;
30533;SDS011;17318;52.390;9.754;2023-02-01T11:25:55;19.52;;;2.40;;
30533;SDS011;17318;52.390;9.754;2023-02-01T11:28:26;21.52;;;3.10;;
30533;SDS011;17318;52.390;9.754;2023-02-01T11:30:58;14.52;;;2.92;;
30533;SDS011;17318;52.390;9.754;2023-02-01T11:33:29;13.57;;;2.60;;
30533;SDS011;17318;52.390;9.754;2023-02-01T11:36:01;16.48;;;2.60;;
30533;SDS011;17318;52.390;9.754;2023-02-01T11:38:33;12.60;;;2.30;;
30533;SDS011;17318;52.390;9.754;2023-02-01T11:41:12;14.20;;;2.92;;
30533;SDS011;17318;52.390;9.754;2023-02-01T11:43:56;12.20;;;2.40;;
30533;SDS011;17318;52.390;9.754;2023-02-01T11:46:29;16.75;;;2.70;;
30533;SDS011;17318;52.390;9.754;2023-02-01T11:54:59;20.25;;;3.25;;
30533;SDS011;17318;52.390;9.754;2023-02-01T12:03:08;22.95;;;3.35;;
30533;SDS011;17318;52.390;9.754;2023-02-01T12:11:21;20.85;;;2.97;;
30533;SDS011;17318;52.390;9.754;2023-02-01T12:20:02;22.20;;;3.15;;
30533;SDS011;17318;52.390;9.754;2023-02-01T12:28:22;15.38;;;2.50;;
30533;SDS011;17318;52.390;9.754;2023-02-01T12:37:35;15.35;;;3.03;;
30533;SDS011;17318;52.390;9.754;2023-02-01T12:47:40;12.73;;;2.08;;
30533;SDS011;17318;52.390;9.754;2023-02-01T12:55:51;10.50;;;2.95;;
30533;SDS011;17318;52.390;9.754;2023-02-01T13:01:00;12.52;;;3.08;;
30533;SDS011;17318;52.390;9.754;2023-02-01T13:09:14;7.90;;;1.80;;
30533;SDS011;17318;52.390;9.754;2023-02-01T13:11:33;12.88;;;2.40;;
30533;SDS011;17318;52.390;9.754;2023-02-01T13:14:16;10.68;;;1.98;;
30533;SDS011;17318;52.390;9.754;2023-02-01T13:17:31;14.13;;;2.10;;
30533;SDS011;17318;52.390;9.754;2023-02-01T13:22:23;11.85;;;1.60;;
30533;SDS011;17318;52.390;9.754;2023-02-01T13:24:55;6.95;;;1.75;;
30533;SDS011;17318;52.390;9.754;2023-02-01T13:27:30;6.88;;;1.42;;
30533;SDS011;17318;52.390;9.754;2023-02-01T13:29:59;7.45;;;1.63;;
30533;SDS011;17318;52.390;9.754;2023-02-01T13:32:52;15.45;;;2.22;;
30533;SDS011;17318;52.390;9.754;2023-02-01T13:35:36;6.40;;;1.25;;
30533;SDS011;17318;52.390;9.754;2023-02-01T13:43:34;1.65;;;0.30;;
30533;SDS011;17318;52.390;9.754;2023-02-01T13:46:06;2.60;;;0.73;;
30533;SDS011;17318;52.390;9.754;2023-02-01T13:48:45;0.75;;;0.30;;
30533;SDS011;17318;52.390;9.754;2023-02-01T13:51:33;1.50;;;0.30;;
30533;SDS011;17318;52.390;9.754;2023-02-01T13:54:02;2.10;;;0.65;;
30533;SDS011;17318;52.390;9.754;2023-02-01T13:56:32;2.60;;;0.70;;
30533;SDS011;17318;52.390;9.754;2023-02-01T14:05:06;2.83;;;0.75;;
30533;SDS011;17318;52.390;9.754;2023-02-01T14:08:00;4.25;;;0.70;;
30533;SDS011;17318;52.390;9.754;2023-02-01T14:16:17;0.90;;;0.43;;
30533;SDS011;17318;52.390;9.754;2023-02-01T14:31:52;2.22;;;0.40;;
30533;SDS011;17318;52.390;9.754;2023-02-01T14:37:08;1.10;;;0.40;;
30533;SDS011;17318;52.390;9.754;2023-02-01T14:45:46;3.40;;;1.40;;
30533;SDS011;17318;52.390;9.754;2023-02-01T14:47:45;2.53;;;0.50;;
30533;SDS011;17318;52.390;9.754;2023-02-01T14:58:01;2.15;;;0.70;;
30533;SDS011;17318;52.390;9.754;2023-02-01T15:00:30;4.47;;;1.00;;
30533;SDS011;17318;52.390;9.754;2023-02-01T15:06:20;3.65;;;1.10;;
30533;SDS011;17318;52.390;9.754;2023-02-01T15:08:54;4.45;;;0.73;;
30533;SDS011;17318;52.390;9.754;2023-02-01T15:11:22;1.88;;;0.68;;
30533;SDS011;17318;52.390;9.754;2023-02-01T15:13:51;9.05;;;0.90;;
30533;SDS011;17318;52.390;9.754;2023-02-01T15:16:19;6.55;;;1.25;;
30533;SDS011;17318;52.390;9.754;2023-02-01T15:18:50;2.53;;;0.80;;
30533;SDS011;17318;52.390;9.754;2023-02-01T15:21:23;9.65;;;1.95;;
30533;SDS011;17318;52.390;9.754;2023-02-01T15:23:50;5.57;;;1.30;;
30533;SDS011;17318;52.390;9.754;2023-02-01T15:26:28;4.72;;;0.98;;
30533;SDS011;17318;52.390;9.754;2023-02-01T15:28:56;5.72;;;0.80;;
30533;SDS011;17318;52.390;9.754;2023-02-01T15:31:33;10.73;;;1.13;;
30533;SDS011;17318;52.390;9.754;2023-02-01T15:34:05;5.20;;;1.65;;
30533;SDS011;17318;52.390;9.754;2023-02-01T15:36:31;5.38;;;1.30;;
30533;SDS011;17318;52.390;9.754;2023-02-01T15:41:53;8.02;;;1.30;;
30533;SDS011;17318;52.390;9.754;2023-02-01T15:44:43;4.82;;;0.90;;
30533;SDS011;17318;52.390;9.754;2023-02-01T15:49:51;3.80;;;0.93;;
30533;SDS011;17318;52.390;9.754;2023-02-01T15:52:24;10.25;;;1.40;;
30533;SDS011;17318;52.390;9.754;2023-02-01T15:54:56;5.32;;;0.85;;
30533;SDS011;17318;52.390;9.754;2023-02-01T15:57:35;6.68;;;1.27;;
30533;SDS011;17318;52.390;9.754;2023-02-01T16:02:50;7.55;;;1.33;;
30533;SDS011;17318;52.390;9.754;2023-02-01T16:08:16;9.32;;;1.65;;
30533;SDS011;17318;52.390;9.754;2023-02-01T16:10:47;6.70;;;1.95;;
30533;SDS011;17318;52.390;9.754;2023-02-01T16:13:15;7.55;;;0.88;;
30533;SDS011;17318;52.390;9.754;2023-02-01T16:15:41;10.23;;;2.47;;
30533;SDS011;17318;52.390;9.754;2023-02-01T16:18:08;6.60;;;1.50;;
30533;SDS011;17318;52.390;9.754;2023-02-01T16:20:37;7.53;;;1.73;;
30533;SDS011;17318;52.390;9.754;2023-02-01T16:23:05;15.75;;;2.08;;
30533;SDS011;17318;52.390;9.754;2023-02-01T16:25:31;14.55;;;2.38;;
30533;SDS011;17318;52.390;9.754;2023-02-01T16:27:57;5.75;;;1.60;;
30533;SDS011;17318;52.390;9.754;2023-02-01T16:30:23;8.27;;;2.08;;
30533;SDS011;17318;52.390;9.754;2023-02-01T16:32:55;11.70;;;2.17;;
30533;SDS011;17318;52.390;9.754;2023-02-01T16:37:53;12.95;;;2.22;;
30533;SDS011;17318;52.390;9.754;2023-02-01T16:40:19;9.70;;;2.50;;
30533;SDS011;17318;52.390;9.754;2023-02-01T16:42:49;11.43;;;2.08;;
30533;SDS011;17318;52.390;9.754;2023-02-01T16:45:16;8.10;;;1.67;;
30533;SDS011;17318;52.390;9.754;2023-02-01T16:47:46;11.38;;;1.85;;
30533;SDS011;17318;52.390;9.754;2023-02-01T16:50:23;9.98;;;1.60;;
30533;SDS011;17318;52.390;9.754;2023-02-01T16:52:50;10.68;;;1.80;;
30533;SDS011;17318;52.390;9.754;2023-02-01T16:55:18;11.20;;;1.88;;
30533;SDS011;17318;52.390;9.754;2023-02-01T16:57:46;10.52;;;1.80;;
30533;SDS011;17318;52.390;9.754;2023-02-01T17:00:14;18.63;;;2.97;;
30533;SDS011;17318;52.390;9.754;2023-02-01T17:02:44;20.45;;;3.58;;
30533;SDS011;17318;52.390;9.754;2023-02-01T17:05:10;15.02;;;2.03;;
30533;SDS011;17318;52.390;9.754;2023-02-01T17:07:36;9.63;;;2.28;;
30533;SDS011;17318;52.390;9.754;2023-02-01T17:10:04;12.80;;;2.60;;
30533;SDS011;17318;52.390;9.754;2023-02-01T17:12:31;15.30;;;1.80;;
30533;SDS011;17318;52.390;9.754;2023-02-01T17:14:58;14.32;;;1.73;;
30533;SDS011;17318;52.390;9.754;2023-02-01T17:17:32;9.23;;;1.67;;
30533;SDS011;17318;52.390;9.754;2023-02-01T17:20:01;13.32;;;3.65;;
30533;SDS011;17318;52.390;9.754;2023-02-01T17:22:28;14.52;;;3.45;;
30533;SDS011;17318;52.390;9.754;2023-02-01T17:24:54;20.40;;;3.25;;
30533;SDS011;17318;52.390;9.754;2023-02-01T17:27:19;14.77;;;2.67;;
30533;SDS011;17318;52.390;9.754;2023-02-01T17:29:45;10.75;;;2.72;;
30533;SDS011;17318;52.390;9.754;2023-02-01T17:32:17;10.57;;;2.08;;
30533;SDS011;17318;52.390;9.754;2023-02-01T17:34:45;16.45;;;2.58;;
30533;SDS011;17318;52.390;9.754;2023-02-01T17:37:20;21.20;;;3.50;;
30533;SDS011;17318;52.390;9.754;2023-02-01T17:39:51;15.68;;;2.47;;
30533;SDS011;17318;52.390;9.754;2023-02-01T17:42:20;17.33;;;2.10;;
30533;SDS011;17318;52.390;9.754;2023-02-01T17:44:46;19.33;;;4.07;;
30533;SDS011;17318;52.390;9.754;2023-02-01T17:47:12;21.75;;;2.70;;